Branch, Canada
Current Conditions -  °F | °C
As of 3:00 AM on Friday 31 Oct 2014 (Local Time) from CYYT Reporting Station
Overcast Overcast  
Wind Chill: 43°   Ceiling: 3900
Heat Index: 48°   Visibility: 15mi
Dew Point: 46°   Wind: 13mph
Humidity: 93%   Direction: 270°W
Pressure: 29.73"   Gusts: NA
Location:  46.88°N, 53.97°W
Report Text: CYYT 310500Z 27011KT 15SM FEW029 BKN039 OVC120 09/08 A2973 RMK SC2SC5AC1 SLP068
Loading
Personal Weather Stations






























Interactive Weather Map
Tropical Storm Tracking
New forecast layout! Learn more

10-Day Weather Forecast

Advertisements
Track Severe Weather on mobile